sensor_id;sensor_type;location;lat;lon;timestamp;pressure;altitude;pressure_sealevel;temperature;humidity
61384;BME280;63511;49.346;8.798;2022-10-16T00:01:18;99953.19;;;20.31;86.13
61384;BME280;63511;49.346;8.798;2022-10-16T00:03:45;99956.44;;;20.24;86.48
61384;BME280;63511;49.346;8.798;2022-10-16T00:06:12;99956.25;;;20.15;87.24
61384;BME280;63511;49.346;8.798;2022-10-16T00:08:39;99973.09;;;20.06;87.31
61384;BME280;63511;49.346;8.798;2022-10-16T00:11:19;99956.50;;;20.27;86.38
61384;BME280;63511;49.346;8.798;2022-10-16T00:13:50;99962.69;;;20.34;86.21
61384;BME280;63511;49.346;8.798;2022-10-16T00:16:18;99955.03;;;20.35;86.67
61384;BME280;63511;49.346;8.798;2022-10-16T00:18:44;99963.31;;;20.27;86.08
61384;BME280;63511;49.346;8.798;2022-10-16T00:21:14;99959.06;;;20.27;86.09
61384;BME280;63511;49.346;8.798;2022-10-16T00:23:43;99982.06;;;20.23;86.35
61384;BME280;63511;49.346;8.798;2022-10-16T00:26:14;99970.88;;;20.21;86.24
61384;BME280;63511;49.346;8.798;2022-10-16T00:28:40;99972.63;;;20.22;86.42
61384;BME280;63511;49.346;8.798;2022-10-16T00:31:07;99971.78;;;20.23;86.28
61384;BME280;63511;49.346;8.798;2022-10-16T00:33:34;99967.63;;;20.28;85.88
61384;BME280;63511;49.346;8.798;2022-10-16T00:36:00;99960.81;;;20.28;85.78
61384;BME280;63511;49.346;8.798;2022-10-16T00:38:26;99955.72;;;20.30;85.75
61384;BME280;63511;49.346;8.798;2022-10-16T00:40:56;99945.28;;;20.22;86.02
61384;BME280;63511;49.346;8.798;2022-10-16T00:46:08;99958.16;;;20.24;86.05
61384;BME280;63511;49.346;8.798;2022-10-16T00:48:38;99963.09;;;20.16;86.38
61384;BME280;63511;49.346;8.798;2022-10-16T00:51:04;99956.44;;;20.24;85.93
61384;BME280;63511;49.346;8.798;2022-10-16T00:53:31;99960.81;;;20.28;85.38
61384;BME280;63511;49.346;8.798;2022-10-16T00:55:56;99968.50;;;20.28;85.35
61384;BME280;63511;49.346;8.798;2022-10-16T00:58:21;99981.25;;;20.25;85.60
61384;BME280;63511;49.346;8.798;2022-10-16T01:00:47;99987.75;;;20.11;85.88
61384;BME280;63511;49.346;8.798;2022-10-16T01:06:06;99982.72;;;20.14;85.81
61384;BME280;63511;49.346;8.798;2022-10-16T01:11:45;99981.19;;;20.22;85.61
61384;BME280;63511;49.346;8.798;2022-10-16T01:14:22;99976.88;;;20.21;85.63
61384;BME280;63511;49.346;8.798;2022-10-16T01:16:57;99978.94;;;20.00;87.05
61384;BME280;63511;49.346;8.798;2022-10-16T01:21:59;99976.50;;;20.05;86.93
61384;BME280;63511;49.346;8.798;2022-10-16T01:24:46;99978.47;;;20.16;86.54
61384;BME280;63511;49.346;8.798;2022-10-16T01:27:30;99985.47;;;20.23;86.08
61384;BME280;63511;49.346;8.798;2022-10-16T01:32:42;99992.16;;;20.15;87.13
61384;BME280;63511;49.346;8.798;2022-10-16T01:35:18;99983.78;;;20.24;86.41
61384;BME280;63511;49.346;8.798;2022-10-16T01:40:18;99982.31;;;20.33;85.96
61384;BME280;63511;49.346;8.798;2022-10-16T01:42:48;99987.41;;;20.32;86.01
61384;BME280;63511;49.346;8.798;2022-10-16T01:45:17;99979.09;;;20.06;86.44
61384;BME280;63511;49.346;8.798;2022-10-16T01:47:44;99989.69;;;20.20;86.14
61384;BME280;63511;49.346;8.798;2022-10-16T01:50:12;99990.38;;;20.13;86.73
61384;BME280;63511;49.346;8.798;2022-10-16T01:52:43;99985.47;;;20.23;86.20
61384;BME280;63511;49.346;8.798;2022-10-16T01:55:10;99983.47;;;20.10;87.02
61384;BME280;63511;49.346;8.798;2022-10-16T01:57:40;99981.66;;;20.06;87.07
61384;BME280;63511;49.346;8.798;2022-10-16T02:00:11;99981.94;;;20.18;86.63
61384;BME280;63511;49.346;8.798;2022-10-16T02:02:39;99983.69;;;20.21;86.36
61384;BME280;63511;49.346;8.798;2022-10-16T02:05:16;99996.50;;;20.19;86.39
61384;BME280;63511;49.346;8.798;2022-10-16T02:07:45;100000.03;;;20.24;86.00
61384;BME280;63511;49.346;8.798;2022-10-16T02:10:10;100000.16;;;20.29;85.94
61384;BME280;63511;49.346;8.798;2022-10-16T02:12:38;100000.16;;;20.29;85.82
61384;BME280;63511;49.346;8.798;2022-10-16T02:15:08;100005.84;;;20.17;86.28
61384;BME280;63511;49.346;8.798;2022-10-16T02:17:34;100005.13;;;20.23;85.94
61384;BME280;63511;49.346;8.798;2022-10-16T02:20:00;100006.06;;;20.26;86.03
61384;BME280;63511;49.346;8.798;2022-10-16T02:22:35;100010.31;;;20.24;86.09
61384;BME280;63511;49.346;8.798;2022-10-16T02:27:46;100013.66;;;20.22;86.45
61384;BME280;63511;49.346;8.798;2022-10-16T02:30:19;100000.22;;;20.32;85.84
61384;BME280;63511;49.346;8.798;2022-10-16T02:32:47;100002.84;;;20.33;85.74
61384;BME280;63511;49.346;8.798;2022-10-16T02:35:17;100005.75;;;20.13;86.38
61384;BME280;63511;49.346;8.798;2022-10-16T02:37:44;100005.22;;;19.91;87.56
61384;BME280;63511;49.346;8.798;2022-10-16T02:40:13;99998.31;;;19.87;88.08
61384;BME280;63511;49.346;8.798;2022-10-16T02:42:40;100003.75;;;20.00;87.87
61384;BME280;63511;49.346;8.798;2022-10-16T02:45:09;99999.66;;;20.08;87.51
61384;BME280;63511;49.346;8.798;2022-10-16T02:47:37;99997.59;;;20.29;86.49
61384;BME280;63511;49.346;8.798;2022-10-16T02:50:03;99997.34;;;20.18;86.41
61384;BME280;63511;49.346;8.798;2022-10-16T02:52:30;99997.75;;;20.35;85.70
61384;BME280;63511;49.346;8.798;2022-10-16T02:54:56;100001.97;;;20.33;85.74
61384;BME280;63511;49.346;8.798;2022-10-16T02:57:21;100005.41;;;20.33;85.50
61384;BME280;63511;49.346;8.798;2022-10-16T02:59:49;100008.22;;;20.08;86.63
61384;BME280;63511;49.346;8.798;2022-10-16T03:02:14;100010.97;;;20.17;86.77
61384;BME280;63511;49.346;8.798;2022-10-16T03:04:42;100012.09;;;20.28;85.88
61384;BME280;63511;49.346;8.798;2022-10-16T03:07:07;100013.97;;;20.34;85.72
61384;BME280;63511;49.346;8.798;2022-10-16T03:09:32;100018.34;;;20.38;85.47
61384;BME280;63511;49.346;8.798;2022-10-16T03:12:00;100022.59;;;20.36;85.37
61384;BME280;63511;49.346;8.798;2022-10-16T03:14:25;100019.94;;;20.33;85.24
61384;BME280;63511;49.346;8.798;2022-10-16T03:16:53;100026.84;;;20.35;85.31
61384;BME280;63511;49.346;8.798;2022-10-16T03:19:19;100032.72;;;20.31;85.60
61384;BME280;63511;49.346;8.798;2022-10-16T03:21:46;100027.53;;;20.30;85.24
61384;BME280;63511;49.346;8.798;2022-10-16T03:24:12;100027.63;;;20.33;85.52
61384;BME280;63511;49.346;8.798;2022-10-16T03:26:39;100022.53;;;20.34;85.15
61384;BME280;63511;49.346;8.798;2022-10-16T03:29:05;100018.09;;;20.29;85.23
61384;BME280;63511;49.346;8.798;2022-10-16T03:31:32;100020.56;;;20.24;85.60
61384;BME280;63511;49.346;8.798;2022-10-16T03:34:00;100032.56;;;19.91;87.01
61384;BME280;63511;49.346;8.798;2022-10-16T03:36:28;100032.00;;;20.03;87.35
61384;BME280;63511;49.346;8.798;2022-10-16T03:38:56;100033.38;;;20.24;86.18
61384;BME280;63511;49.346;8.798;2022-10-16T03:41:24;100024.09;;;20.29;85.70
61384;BME280;63511;49.346;8.798;2022-10-16T03:43:49;100018.88;;;20.26;85.79
61384;BME280;63511;49.346;8.798;2022-10-16T03:46:16;100016.25;;;20.23;85.57
61384;BME280;63511;49.346;8.798;2022-10-16T03:48:42;100008.50;;;20.22;85.83
61384;BME280;63511;49.346;8.798;2022-10-16T03:51:11;100008.72;;;20.29;85.08
61384;BME280;63511;49.346;8.798;2022-10-16T03:53:36;100006.22;;;20.31;85.12
61384;BME280;63511;49.346;8.798;2022-10-16T03:56:02;100009.69;;;20.00;86.32
61384;BME280;63511;49.346;8.798;2022-10-16T03:58:32;100015.69;;;20.01;86.89
61384;BME280;63511;49.346;8.798;2022-10-16T04:01:02;100015.75;;;20.02;86.71
61384;BME280;63511;49.346;8.798;2022-10-16T04:03:27;100017.91;;;20.20;85.99
61384;BME280;63511;49.346;8.798;2022-10-16T04:05:53;100021.44;;;20.26;85.34
61384;BME280;63511;49.346;8.798;2022-10-16T04:08:18;100026.56;;;20.26;85.36
61384;BME280;63511;49.346;8.798;2022-10-16T04:10:44;100026.66;;;20.29;85.22
61384;BME280;63511;49.346;8.798;2022-10-16T04:13:09;100030.09;;;20.30;84.90
61384;BME280;63511;49.346;8.798;2022-10-16T04:15:37;100035.13;;;20.25;84.86
61384;BME280;63511;49.346;8.798;2022-10-16T04:18:03;100035.22;;;20.30;84.67
61384;BME280;63511;49.346;8.798;2022-10-16T04:20:29;100046.34;;;19.96;86.14
61384;BME280;63511;49.346;8.798;2022-10-16T04:22:55;100050.00;;;20.06;85.96
61384;BME280;63511;49.346;8.798;2022-10-16T04:25:20;100052.56;;;20.04;85.91
61384;BME280;63511;49.346;8.798;2022-10-16T04:27:48;100056.25;;;20.15;85.70
61384;BME280;63511;49.346;8.798;2022-10-16T04:30:15;100048.69;;;20.21;85.60
61384;BME280;63511;49.346;8.798;2022-10-16T04:32:41;100035.00;;;20.21;85.31
61384;BME280;63511;49.346;8.798;2022-10-16T04:35:07;100037.59;;;20.22;85.05
61384;BME280;63511;49.346;8.798;2022-10-16T04:37:32;100048.16;;;20.00;85.76
61384;BME280;63511;49.346;8.798;2022-10-16T04:39:58;100048.56;;;20.15;85.67
61384;BME280;63511;49.346;8.798;2022-10-16T04:42:23;100065.63;;;20.15;85.70
61384;BME280;63511;49.346;8.798;2022-10-16T04:44:51;100077.81;;;20.23;85.35
61384;BME280;63511;49.346;8.798;2022-10-16T04:47:16;100068.91;;;20.09;85.43
61384;BME280;63511;49.346;8.798;2022-10-16T04:49:42;100076.50;;;20.05;85.72
61384;BME280;63511;49.346;8.798;2022-10-16T04:52:07;100062.91;;;20.09;85.32
61384;BME280;63511;49.346;8.798;2022-10-16T04:54:34;100042.47;;;20.12;85.08
61384;BME280;63511;49.346;8.798;2022-10-16T04:56:59;100046.88;;;20.17;84.68
61384;BME280;63511;49.346;8.798;2022-10-16T04:59:25;100054.66;;;20.20;84.75
61384;BME280;63511;49.346;8.798;2022-10-16T05:01:52;100061.50;;;19.87;86.32
61384;BME280;63511;49.346;8.798;2022-10-16T05:04:18;100060.97;;;19.99;85.25
61384;BME280;63511;49.346;8.798;2022-10-16T05:06:43;100071.38;;;20.06;84.96
61384;BME280;63511;49.346;8.798;2022-10-16T05:09:09;100068.03;;;20.09;84.71
61384;BME280;63511;49.346;8.798;2022-10-16T05:11:34;100068.59;;;19.97;85.37
61384;BME280;63511;49.346;8.798;2022-10-16T05:14:02;100051.41;;;19.93;85.16
61384;BME280;63511;49.346;8.798;2022-10-16T05:16:27;100042.03;;;19.93;85.04
61384;BME280;63511;49.346;8.798;2022-10-16T05:18:53;100050.66;;;19.97;84.48
61384;BME280;63511;49.346;8.798;2022-10-16T05:21:19;100053.75;;;19.84;85.15
61384;BME280;63511;49.346;8.798;2022-10-16T05:23:49;100069.91;;;19.81;84.82
61384;BME280;63511;49.346;8.798;2022-10-16T05:26:17;100079.53;;;19.59;85.86
61384;BME280;63511;49.346;8.798;2022-10-16T05:28:42;100074.69;;;19.68;86.40
61384;BME280;63511;49.346;8.798;2022-10-16T05:31:10;100076.66;;;19.78;85.64
61384;BME280;63511;49.346;8.798;2022-10-16T05:33:35;100074.22;;;19.82;85.24
61384;BME280;63511;49.346;8.798;2022-10-16T05:36:05;100072.59;;;19.86;84.79
61384;BME280;63511;49.346;8.798;2022-10-16T05:38:32;100065.69;;;19.83;84.80
61384;BME280;63511;49.346;8.798;2022-10-16T05:40:57;100064.03;;;19.85;84.56
61384;BME280;63511;49.346;8.798;2022-10-16T05:43:23;100073.56;;;19.89;84.61
61384;BME280;63511;49.346;8.798;2022-10-16T05:48:26;100076.84;;;19.85;84.22
61384;BME280;63511;49.346;8.798;2022-10-16T05:51:06;100081.25;;;19.91;84.11
61384;BME280;63511;49.346;8.798;2022-10-16T05:53:35;100082.88;;;19.87;84.33
61384;BME280;63511;49.346;8.798;2022-10-16T05:56:04;100090.34;;;19.80;84.42
61384;BME280;63511;49.346;8.798;2022-10-16T05:58:35;100097.16;;;19.78;84.48
61384;BME280;63511;49.346;8.798;2022-10-16T06:01:06;100100.72;;;19.83;83.86
61384;BME280;63511;49.346;8.798;2022-10-16T06:03:32;100089.41;;;19.76;84.55
61384;BME280;63511;49.346;8.798;2022-10-16T06:06:00;100097.00;;;19.72;84.75
61384;BME280;63511;49.346;8.798;2022-10-16T06:08:31;100098.75;;;19.74;84.46
61384;BME280;63511;49.346;8.798;2022-10-16T06:11:18;100099.56;;;19.72;85.17
61384;BME280;63511;49.346;8.798;2022-10-16T06:13:49;100102.06;;;19.70;85.08
61384;BME280;63511;49.346;8.798;2022-10-16T06:16:15;100104.63;;;19.69;85.02
61384;BME280;63511;49.346;8.798;2022-10-16T06:18:40;100098.91;;;19.80;84.76
61384;BME280;63511;49.346;8.798;2022-10-16T06:21:09;100099.72;;;19.46;85.72
61384;BME280;63511;49.346;8.798;2022-10-16T06:23:34;100105.38;;;19.66;85.21
61384;BME280;63511;49.346;8.798;2022-10-16T06:26:09;100103.19;;;19.80;84.37
61384;BME280;63511;49.346;8.798;2022-10-16T06:28:39;100109.16;;;19.80;84.47
61384;BME280;63511;49.346;8.798;2022-10-16T06:31:08;100117.13;;;19.00;88.47
61384;BME280;63511;49.346;8.798;2022-10-16T06:33:34;100128.44;;;18.80;90.46
61384;BME280;63511;49.346;8.798;2022-10-16T06:36:11;100121.25;;;18.68;90.32
61384;BME280;63511;49.346;8.798;2022-10-16T06:38:40;100125.78;;;18.51;92.82
61384;BME280;63511;49.346;8.798;2022-10-16T06:41:07;100103.50;;;18.47;93.78
61384;BME280;63511;49.346;8.798;2022-10-16T06:43:37;100104.25;;;18.45;94.90
61384;BME280;63511;49.346;8.798;2022-10-16T06:46:04;100113.44;;;18.38;96.05
61384;BME280;63511;49.346;8.798;2022-10-16T06:48:30;100123.41;;;18.31;97.32
61384;BME280;63511;49.346;8.798;2022-10-16T06:53:21;100121.59;;;18.53;95.94
61384;BME280;63511;49.346;8.798;2022-10-16T06:55:46;100130.91;;;18.51;96.17
61384;BME280;63511;49.346;8.798;2022-10-16T06:58:14;100126.78;;;18.55;96.22
61384;BME280;63511;49.346;8.798;2022-10-16T07:00:42;100140.66;;;18.61;95.88
61384;BME280;63511;49.346;8.798;2022-10-16T07:03:07;100127.97;;;18.64;95.95
61384;BME280;63511;49.346;8.798;2022-10-16T07:05:41;100130.81;;;18.74;96.15
61384;BME280;63511;49.346;8.798;2022-10-16T07:08:07;100137.22;;;18.61;96.42
61384;BME280;63511;49.346;8.798;2022-10-16T07:10:37;100141.66;;;18.66;97.39
61384;BME280;63511;49.346;8.798;2022-10-16T07:13:05;100159.72;;;18.46;99.33
61384;BME280;63511;49.346;8.798;2022-10-16T07:15:33;100158.16;;;18.76;97.46
61384;BME280;63511;49.346;8.798;2022-10-16T07:18:01;100157.78;;;18.64;97.25
61384;BME280;63511;49.346;8.798;2022-10-16T07:20:29;100157.22;;;18.73;98.23
61384;BME280;63511;49.346;8.798;2022-10-16T07:22:56;100169.13;;;18.99;96.45
61384;BME280;63511;49.346;8.798;2022-10-16T07:25:22;100174.28;;;19.00;95.91
61384;BME280;63511;49.346;8.798;2022-10-16T07:27:47;100186.38;;;19.04;95.67
61384;BME280;63511;49.346;8.798;2022-10-16T07:30:16;100175.66;;;19.18;95.78
61384;BME280;63511;49.346;8.798;2022-10-16T07:32:43;100182.03;;;19.30;94.64
61384;BME280;63511;49.346;8.798;2022-10-16T07:35:08;100185.13;;;19.47;94.28
61384;BME280;63511;49.346;8.798;2022-10-16T07:37:34;100190.91;;;19.41;94.25
61384;BME280;63511;49.346;8.798;2022-10-16T07:39:59;100194.16;;;19.36;96.23
61384;BME280;63511;49.346;8.798;2022-10-16T07:42:24;100198.13;;;20.47;90.69
61384;BME280;63511;49.346;8.798;2022-10-16T07:44:52;100188.84;;;20.88;88.46
61384;BME280;63511;49.346;8.798;2022-10-16T07:47:20;100196.44;;;21.19;86.17
61384;BME280;63511;49.346;8.798;2022-10-16T07:49:45;100190.25;;;21.49;84.77
61384;BME280;63511;49.346;8.798;2022-10-16T07:52:16;100201.09;;;21.36;84.31
61384;BME280;63511;49.346;8.798;2022-10-16T07:54:48;100205.22;;;21.28;84.60
61384;BME280;63511;49.346;8.798;2022-10-16T07:57:16;100214.25;;;21.12;85.36
61384;BME280;63511;49.346;8.798;2022-10-16T07:59:45;100211.84;;;21.18;85.50
61384;BME280;63511;49.346;8.798;2022-10-16T08:02:11;100204.50;;;20.97;85.45
61384;BME280;63511;49.346;8.798;2022-10-16T08:04:36;100213.28;;;21.07;85.76
61384;BME280;63511;49.346;8.798;2022-10-16T08:07:04;100207.19;;;21.41;84.43
61384;BME280;63511;49.346;8.798;2022-10-16T08:09:33;100216.94;;;21.55;83.75
61384;BME280;63511;49.346;8.798;2022-10-16T08:11:59;100221.94;;;21.12;85.37
61384;BME280;63511;49.346;8.798;2022-10-16T08:14:27;100218.22;;;21.35;85.33
61384;BME280;63511;49.346;8.798;2022-10-16T08:16:52;100219.63;;;21.60;84.53
61384;BME280;63511;49.346;8.798;2022-10-16T08:19:20;100222.38;;;21.69;83.79
61384;BME280;63511;49.346;8.798;2022-10-16T08:21:49;100223.88;;;21.59;84.94
61384;BME280;63511;49.346;8.798;2022-10-16T08:24:16;100216.84;;;21.91;84.12
61384;BME280;63511;49.346;8.798;2022-10-16T08:26:42;100210.56;;;21.79;84.09
61384;BME280;63511;49.346;8.798;2022-10-16T08:29:09;100222.94;;;21.54;84.57
61384;BME280;63511;49.346;8.798;2022-10-16T08:31:35;100227.50;;;22.10;81.92
61384;BME280;63511;49.346;8.798;2022-10-16T08:34:02;100227.25;;;21.97;82.67
61384;BME280;63511;49.346;8.798;2022-10-16T08:36:30;100228.50;;;22.18;81.73
61384;BME280;63511;49.346;8.798;2022-10-16T08:38:58;100229.47;;;22.24;82.08
61384;BME280;63511;49.346;8.798;2022-10-16T08:46:47;100241.81;;;21.95;80.95
61384;BME280;63511;49.346;8.798;2022-10-16T08:49:19;100239.75;;;21.81;80.24
61384;BME280;63511;49.346;8.798;2022-10-16T08:51:44;100236.97;;;21.70;80.61
61384;BME280;63511;49.346;8.798;2022-10-16T08:54:37;100233.25;;;21.98;80.20
61384;BME280;63511;49.346;8.798;2022-10-16T08:57:20;100240.97;;;21.98;79.91
61384;BME280;63511;49.346;8.798;2022-10-16T08:59:48;100249.91;;;21.76;80.23
61384;BME280;63511;49.346;8.798;2022-10-16T09:02:24;100258.09;;;21.57;82.17
61384;BME280;63511;49.346;8.798;2022-10-16T09:17:56;100292.97;;;22.25;80.60
61384;BME280;63511;49.346;8.798;2022-10-16T09:20:32;100288.66;;;22.24;80.18
61384;BME280;63511;49.346;8.798;2022-10-16T09:25:32;100303.09;;;22.16;79.60
61384;BME280;63511;49.346;8.798;2022-10-16T09:27:58;100313.59;;;21.88;81.01
61384;BME280;63511;49.346;8.798;2022-10-16T09:30:28;100321.38;;;21.52;83.50
61384;BME280;63511;49.346;8.798;2022-10-16T09:32:54;100321.91;;;21.37;84.40
61384;BME280;63511;49.346;8.798;2022-10-16T09:35:31;100326.81;;;21.28;83.95
61384;BME280;63511;49.346;8.798;2022-10-16T09:37:58;100328.59;;;21.31;84.77
61384;BME280;63511;49.346;8.798;2022-10-16T09:40:26;100333.97;;;21.07;85.42
61384;BME280;63511;49.346;8.798;2022-10-16T09:43:01;100329.47;;;21.69;84.75
61384;BME280;63511;49.346;8.798;2022-10-16T09:45:30;100330.63;;;21.83;81.95
61384;BME280;63511;49.346;8.798;2022-10-16T09:47:58;100332.56;;;21.91;81.76
61384;BME280;63511;49.346;8.798;2022-10-16T09:50:27;100324.97;;;21.97;80.30
61384;BME280;63511;49.346;8.798;2022-10-16T09:53:14;100323.38;;;22.02;79.66
61384;BME280;63511;49.346;8.798;2022-10-16T09:55:51;100308.53;;;22.31;80.02
61384;BME280;63511;49.346;8.798;2022-10-16T09:58:16;100316.38;;;22.39;79.78
61384;BME280;63511;49.346;8.798;2022-10-16T10:00:54;100315.63;;;22.44;80.00
61384;BME280;63511;49.346;8.798;2022-10-16T10:03:42;100318.50;;;22.60;78.30
61384;BME280;63511;49.346;8.798;2022-10-16T10:06:24;100322.06;;;22.66;78.52
61384;BME280;63511;49.346;8.798;2022-10-16T10:12:23;100334.91;;;23.13;76.99
61384;BME280;63511;49.346;8.798;2022-10-16T10:14:34;100331.94;;;23.41;74.78
61384;BME280;63511;49.346;8.798;2022-10-16T10:19:54;100343.34;;;23.54;77.53
61384;BME280;63511;49.346;8.798;2022-10-16T10:22:39;100339.28;;;23.71;75.40
61384;BME280;63511;49.346;8.798;2022-10-16T10:25:14;100335.09;;;23.78;75.46
61384;BME280;63511;49.346;8.798;2022-10-16T10:30:33;100327.84;;;24.15;74.19
61384;BME280;63511;49.346;8.798;2022-10-16T10:51:44;100314.81;;;23.45;72.95
61384;BME280;63511;49.346;8.798;2022-10-16T10:54:15;100308.16;;;23.59;74.65
61384;BME280;63511;49.346;8.798;2022-10-16T11:07:48;100305.53;;;23.54;69.51
61384;BME280;63511;49.346;8.798;2022-10-16T11:10:21;100311.00;;;23.79;71.37
61384;BME280;63511;49.346;8.798;2022-10-16T11:12:55;100312.81;;;23.84;73.14
61384;BME280;63511;49.346;8.798;2022-10-16T11:15:29;100303.47;;;23.94;72.23
61384;BME280;63511;49.346;8.798;2022-10-16T11:18:38;100316.16;;;23.79;70.07
61384;BME280;63511;49.346;8.798;2022-10-16T11:21:10;100310.88;;;23.68;70.98
61384;BME280;63511;49.346;8.798;2022-10-16T11:23:53;100314.59;;;23.88;71.42
61384;BME280;63511;49.346;8.798;2022-10-16T11:26:26;100317.38;;;24.03;72.39
61384;BME280;63511;49.346;8.798;2022-10-16T11:28:56;100306.13;;;24.00;73.53
61384;BME280;63511;49.346;8.798;2022-10-16T11:31:38;100311.38;;;24.06;73.46
61384;BME280;63511;49.346;8.798;2022-10-16T11:37:08;100307.28;;;24.19;71.34
61384;BME280;63511;49.346;8.798;2022-10-16T11:39:38;100300.53;;;24.30;72.44
61384;BME280;63511;49.346;8.798;2022-10-16T11:45:07;100301.13;;;24.12;73.52
61384;BME280;63511;49.346;8.798;2022-10-16T11:47:48;100287.59;;;24.28;72.91
61384;BME280;63511;49.346;8.798;2022-10-16T11:55:52;100285.91;;;24.32;71.20
61384;BME280;63511;49.346;8.798;2022-10-16T11:58:32;100291.38;;;23.88;68.10
61384;BME280;63511;49.346;8.798;2022-10-16T12:03:34;100298.72;;;24.26;68.81
61384;BME280;63511;49.346;8.798;2022-10-16T12:08:37;100306.63;;;23.73;66.75
61384;BME280;63511;49.346;8.798;2022-10-16T12:13:44;100302.59;;;24.64;65.50
61384;BME280;63511;49.346;8.798;2022-10-16T12:18:43;100294.50;;;24.31;64.48
61384;BME280;63511;49.346;8.798;2022-10-16T12:21:11;100298.34;;;24.69;64.40
61384;BME280;63511;49.346;8.798;2022-10-16T12:23:55;100306.91;;;23.94;65.39
61384;BME280;63511;49.346;8.798;2022-10-16T12:26:38;100304.47;;;24.80;64.57
61384;BME280;63511;49.346;8.798;2022-10-16T12:31:46;100289.47;;;25.44;64.63
61384;BME280;63511;49.346;8.798;2022-10-16T12:37:15;100281.88;;;25.65;63.15
61384;BME280;63511;49.346;8.798;2022-10-16T12:39:45;100280.03;;;25.51;62.68
61384;BME280;63511;49.346;8.798;2022-10-16T12:44:53;100277.78;;;26.19;61.76
61384;BME280;63511;49.346;8.798;2022-10-16T12:47:22;100283.94;;;26.45;61.00
61384;BME280;63511;49.346;8.798;2022-10-16T12:49:53;100274.44;;;26.50;61.75
61384;BME280;63511;49.346;8.798;2022-10-16T12:55:05;100276.19;;;26.67;59.54
61384;BME280;63511;49.346;8.798;2022-10-16T13:06:46;100272.69;;;26.49;60.41
61384;BME280;63511;49.346;8.798;2022-10-16T13:22:48;100294.16;;;26.10;61.14
61384;BME280;63511;49.346;8.798;2022-10-16T13:30:27;100310.66;;;26.34;60.48
61384;BME280;63511;49.346;8.798;2022-10-16T13:33:17;100308.94;;;26.34;60.47
61384;BME280;63511;49.346;8.798;2022-10-16T13:35:51;100318.31;;;26.08;61.66
61384;BME280;63511;49.346;8.798;2022-10-16T13:38:25;100314.84;;;26.07;61.66
61384;BME280;63511;49.346;8.798;2022-10-16T13:43:38;100313.00;;;25.79;60.99
61384;BME280;63511;49.346;8.798;2022-10-16T13:46:18;100312.13;;;25.74;61.26
61384;BME280;63511;49.346;8.798;2022-10-16T13:48:55;100309.44;;;25.59;61.87
61384;BME280;63511;49.346;8.798;2022-10-16T13:51:21;100314.53;;;25.51;62.47
61384;BME280;63511;49.346;8.798;2022-10-16T13:53:46;100304.19;;;25.53;61.31
61384;BME280;63511;49.346;8.798;2022-10-16T13:56:14;100304.19;;;25.51;63.47
61384;BME280;63511;49.346;8.798;2022-10-16T13:58:41;100306.75;;;25.51;63.85
61384;BME280;63511;49.346;8.798;2022-10-16T14:01:18;100310.19;;;25.50;63.64
61384;BME280;63511;49.346;8.798;2022-10-16T14:03:45;100318.81;;;25.48;63.67
61384;BME280;63511;49.346;8.798;2022-10-16T14:06:14;100329.91;;;25.31;63.95
61384;BME280;63511;49.346;8.798;2022-10-16T14:09:01;100323.75;;;25.19;65.75
61384;BME280;63511;49.346;8.798;2022-10-16T14:11:29;100322.88;;;25.14;65.59
61384;BME280;63511;49.346;8.798;2022-10-16T14:13:55;100316.81;;;25.07;66.48
61384;BME280;63511;49.346;8.798;2022-10-16T14:16:23;100312.34;;;24.92;67.39
61384;BME280;63511;49.346;8.798;2022-10-16T14:18:58;100309.00;;;25.01;66.75
61384;BME280;63511;49.346;8.798;2022-10-16T14:21:25;100313.03;;;24.78;66.47
61384;BME280;63511;49.346;8.798;2022-10-16T14:23:52;100296.50;;;24.58;68.01
61384;BME280;63511;49.346;8.798;2022-10-16T14:26:22;100293.09;;;24.63;68.67
61384;BME280;63511;49.346;8.798;2022-10-16T14:29:00;100296.44;;;24.50;67.86
61384;BME280;63511;49.346;8.798;2022-10-16T14:31:32;100305.00;;;24.47;67.45
61384;BME280;63511;49.346;8.798;2022-10-16T14:33:58;100307.66;;;24.56;66.31
61384;BME280;63511;49.346;8.798;2022-10-16T14:36:25;100314.50;;;24.51;66.81
61384;BME280;63511;49.346;8.798;2022-10-16T14:39:02;100317.13;;;24.54;66.84
61384;BME280;63511;49.346;8.798;2022-10-16T14:41:33;100316.22;;;24.49;68.57
61384;BME280;63511;49.346;8.798;2022-10-16T14:44:06;100320.31;;;24.31;69.73
61384;BME280;63511;49.346;8.798;2022-10-16T14:46:34;100318.50;;;24.25;70.30
61384;BME280;63511;49.346;8.798;2022-10-16T14:51:40;100331.47;;;24.28;71.67
61384;BME280;63511;49.346;8.798;2022-10-16T14:54:14;100334.22;;;23.79;73.00
61384;BME280;63511;49.346;8.798;2022-10-16T15:01:49;100322.81;;;23.60;73.17
61384;BME280;63511;49.346;8.798;2022-10-16T15:04:15;100329.63;;;23.56;74.67
61384;BME280;63511;49.346;8.798;2022-10-16T15:06:41;100332.41;;;23.16;76.42
61384;BME280;63511;49.346;8.798;2022-10-16T15:09:07;100330.66;;;23.67;75.35
61384;BME280;63511;49.346;8.798;2022-10-16T15:11:32;100327.63;;;23.97;73.62
61384;BME280;63511;49.346;8.798;2022-10-16T15:13:58;100324.34;;;24.10;72.84
61384;BME280;63511;49.346;8.798;2022-10-16T15:16:24;100327.84;;;24.14;73.06
61384;BME280;63511;49.346;8.798;2022-10-16T15:18:49;100326.91;;;24.10;72.63
61384;BME280;63511;49.346;8.798;2022-10-16T15:21:23;100328.22;;;23.78;74.16
61384;BME280;63511;49.346;8.798;2022-10-16T15:23:49;100326.97;;;24.13;72.46
61384;BME280;63511;49.346;8.798;2022-10-16T15:26:15;100322.88;;;24.29;71.46
61384;BME280;63511;49.346;8.798;2022-10-16T15:28:41;100329.16;;;23.85;73.17
61384;BME280;63511;49.346;8.798;2022-10-16T15:31:06;100328.69;;;24.16;72.13
61384;BME280;63511;49.346;8.798;2022-10-16T15:33:37;100332.28;;;24.24;71.56
61384;BME280;63511;49.346;8.798;2022-10-16T15:36:04;100328.88;;;24.28;71.72
61384;BME280;63511;49.346;8.798;2022-10-16T15:38:32;100335.63;;;24.17;72.65